createdAt,value
2022-11-22T00:00:42.310Z,0.00
2022-11-22T00:01:42.275Z,0.00
2022-11-22T00:02:42.184Z,0.00
2022-11-22T00:03:42.141Z,0.00
2022-11-22T00:04:42.113Z,0.00
2022-11-22T00:05:42.063Z,0.00
2022-11-22T00:06:42.071Z,0.00
2022-11-22T00:07:42.062Z,0.00
2022-11-22T00:08:41.985Z,0.00
2022-11-22T00:09:41.910Z,0.00
2022-11-22T00:10:41.871Z,0.00
2022-11-22T00:11:41.834Z,0.00
2022-11-22T00:12:41.852Z,0.00
2022-11-22T00:13:41.755Z,0.00
2022-11-22T00:14:41.714Z,0.00
2022-11-22T00:15:41.678Z,0.00
2022-11-22T00:16:41.638Z,0.00
2022-11-22T00:17:41.599Z,0.00
2022-11-22T00:18:41.611Z,0.00
2022-11-22T00:19:41.519Z,0.00
2022-11-22T00:20:41.475Z,0.00
2022-11-22T00:21:41.442Z,0.00
2022-11-22T00:22:44.827Z,0.00
2022-11-22T00:23:41.852Z,0.00
2022-11-22T00:24:41.376Z,0.00
2022-11-22T00:25:41.851Z,0.00
2022-11-22T00:26:41.243Z,0.00
2022-11-22T00:27:41.226Z,0.00
2022-11-22T00:28:41.164Z,0.00
2022-11-22T00:29:41.130Z,0.00
2022-11-22T00:30:41.142Z,0.00
2022-11-22T00:31:41.046Z,0.00
2022-11-22T00:32:41.007Z,0.00
2022-11-22T00:33:40.970Z,0.00
2022-11-22T00:34:41.462Z,0.00
2022-11-22T00:35:40.891Z,0.00
2022-11-22T00:36:40.902Z,0.00
2022-11-22T00:37:40.813Z,0.00
2022-11-22T00:38:40.784Z,0.00
2022-11-22T00:39:40.741Z,0.00
2022-11-22T00:40:40.702Z,0.00
2022-11-22T00:41:40.665Z,0.00
2022-11-22T00:42:40.672Z,0.00
2022-11-22T00:43:40.572Z,0.00
2022-11-22T00:44:40.531Z,0.00
2022-11-22T00:45:40.495Z,0.00
2022-11-22T00:46:40.480Z,0.00
2022-11-22T00:47:40.423Z,0.00
2022-11-22T00:48:40.430Z,0.00
2022-11-22T00:49:40.344Z,0.00
2022-11-22T00:50:40.301Z,0.00
2022-11-22T00:51:40.262Z,0.00
2022-11-22T00:52:40.223Z,0.00
2022-11-22T00:53:40.183Z,0.00
2022-11-22T00:54:40.224Z,0.00
2022-11-22T00:55:40.098Z,0.00
2022-11-22T00:56:40.070Z,0.00
2022-11-22T00:57:40.035Z,0.00
2022-11-22T00:58:39.987Z,0.00
2022-11-22T00:59:39.950Z,0.00
2022-11-22T01:00:40.016Z,0.00
2022-11-22T01:01:39.895Z,0.00
2022-11-22T01:02:39.863Z,0.00
2022-11-22T01:03:39.784Z,0.00
2022-11-22T01:04:39.747Z,0.00
2022-11-22T01:05:39.711Z,0.00
2022-11-22T01:06:39.720Z,0.00
2022-11-22T01:07:39.682Z,0.00
2022-11-22T01:08:39.588Z,0.00
2022-11-22T01:09:39.563Z,0.00
2022-11-22T01:10:39.534Z,0.00
2022-11-22T01:11:39.468Z,0.00
2022-11-22T01:12:39.493Z,0.00
2022-11-22T01:13:39.401Z,0.00
2022-11-22T01:14:39.362Z,0.00
2022-11-22T01:15:39.311Z,0.00
2022-11-22T01:16:39.281Z,0.00
2022-11-22T01:17:39.246Z,0.00
2022-11-22T01:18:39.529Z,0.00
2022-11-22T01:19:44.854Z,0.00
2022-11-22T01:20:39.222Z,0.00
2022-11-22T01:21:39.082Z,0.00
2022-11-22T01:22:39.040Z,0.00
2022-11-22T01:23:38.998Z,0.00
2022-11-22T01:24:39.011Z,0.00
2022-11-22T01:25:39.004Z,0.00
2022-11-22T01:26:38.888Z,0.00
2022-11-22T01:27:38.851Z,0.00
2022-11-22T01:28:38.804Z,0.00
2022-11-22T01:29:38.774Z,0.00
2022-11-22T01:30:38.734Z,0.00
2022-11-22T01:31:38.747Z,0.00
2022-11-22T01:32:38.645Z,0.00
2022-11-22T01:33:38.607Z,0.00
2022-11-22T01:34:38.591Z,0.00
2022-11-22T01:35:38.534Z,0.00
2022-11-22T01:36:39.065Z,0.00
2022-11-22T01:37:38.445Z,0.00
2022-11-22T01:38:38.414Z,0.00
2022-11-22T01:39:38.379Z,0.00
2022-11-22T01:40:38.337Z,0.00
2022-11-22T01:41:38.298Z,0.00
2022-11-22T01:42:38.328Z,0.00
2022-11-22T01:43:38.343Z,0.00
2022-11-22T01:44:38.177Z,0.00
2022-11-22T01:45:38.137Z,0.00
2022-11-22T01:46:38.097Z,0.00
2022-11-22T01:47:38.049Z,0.00
2022-11-22T01:48:38.061Z,0.00
2022-11-22T01:49:37.981Z,0.00
2022-11-22T01:50:37.934Z,0.00
2022-11-22T01:51:37.904Z,0.00
2022-11-22T01:52:37.863Z,0.00
2022-11-22T01:53:37.821Z,0.00
2022-11-22T01:54:37.832Z,0.00
2022-11-22T01:55:37.738Z,0.00
2022-11-22T01:56:37.709Z,0.00
2022-11-22T01:57:37.686Z,0.00
2022-11-22T01:58:37.621Z,0.00
2022-11-22T01:59:37.575Z,0.00
2022-11-22T02:00:37.685Z,0.00
2022-11-22T02:01:37.554Z,0.00
2022-11-22T02:02:37.471Z,0.00
2022-11-22T02:03:37.433Z,0.00
2022-11-22T02:04:37.464Z,0.00
2022-11-22T02:05:37.367Z,0.00
2022-11-22T02:06:37.361Z,0.00
2022-11-22T02:07:38.006Z,0.00
2022-11-22T02:08:37.323Z,0.00
2022-11-22T02:09:37.185Z,0.00
2022-11-22T02:10:37.152Z,0.00
2022-11-22T02:11:37.114Z,0.00
2022-11-22T02:12:37.862Z,0.00
2022-11-22T02:13:37.859Z,0.00
2022-11-22T02:14:37.002Z,0.00
2022-11-22T02:15:36.957Z,0.00
2022-11-22T02:16:36.920Z,0.00
2022-11-22T02:17:36.872Z,0.00
2022-11-22T02:18:36.899Z,0.00
2022-11-22T02:19:36.800Z,0.00
2022-11-22T02:20:36.760Z,0.00
2022-11-22T02:21:36.717Z,0.00
2022-11-22T02:22:36.690Z,0.00
2022-11-22T02:23:36.637Z,0.00
2022-11-22T02:24:36.658Z,0.00
2022-11-22T02:25:36.568Z,0.00
2022-11-22T02:26:36.520Z,0.00
2022-11-22T02:27:36.483Z,0.00
2022-11-22T02:28:36.447Z,0.00
2022-11-22T02:29:36.404Z,0.00
2022-11-22T02:30:36.426Z,0.00
2022-11-22T02:31:36.322Z,0.00
2022-11-22T02:32:36.350Z,0.00
2022-11-22T02:33:36.244Z,0.00
2022-11-22T02:34:36.216Z,0.00
2022-11-22T02:35:36.172Z,0.00
2022-11-22T02:36:36.130Z,0.00
2022-11-22T02:37:36.142Z,0.00
2022-11-22T02:38:36.054Z,0.00
2022-11-22T02:39:36.008Z,0.00
2022-11-22T02:40:36.016Z,0.00
2022-11-22T02:41:35.930Z,0.00
2022-11-22T02:42:35.897Z,0.00
2022-11-22T02:43:35.915Z,0.00
2022-11-22T02:44:35.851Z,0.00
2022-11-22T02:45:35.780Z,0.00
2022-11-22T02:46:35.746Z,0.00
2022-11-22T02:47:35.692Z,0.00
2022-11-22T02:48:35.666Z,0.00
2022-11-22T02:49:36.059Z,0.00
2022-11-22T02:50:35.583Z,0.00
2022-11-22T02:51:35.539Z,0.00
2022-11-22T02:52:35.504Z,0.00
2022-11-22T02:53:35.460Z,0.00
2022-11-22T02:54:35.456Z,0.00
2022-11-22T02:55:35.432Z,0.00
2022-11-22T02:56:35.349Z,0.00
2022-11-22T02:57:35.309Z,0.00
2022-11-22T02:58:35.272Z,0.00
2022-11-22T02:59:35.302Z,0.00
2022-11-22T03:00:36.066Z,0.00
2022-11-22T03:01:35.165Z,0.00
2022-11-22T03:02:35.111Z,0.00
2022-11-22T03:03:35.065Z,0.00
2022-11-22T03:04:35.029Z,0.00
2022-11-22T03:05:35.050Z,0.00
2022-11-22T03:06:34.960Z,0.00
2022-11-22T03:07:34.952Z,0.00
2022-11-22T03:08:34.877Z,0.00
2022-11-22T03:09:34.836Z,0.00
2022-11-22T03:10:34.869Z,0.00
2022-11-22T03:11:34.752Z,0.00
2022-11-22T03:12:34.716Z,0.00
2022-11-22T03:13:34.692Z,0.00
2022-11-22T03:14:34.640Z,0.00
2022-11-22T03:15:34.601Z,0.00
2022-11-22T03:16:34.623Z,0.00
2022-11-22T03:17:34.550Z,0.00
2022-11-22T03:18:34.477Z,0.00
2022-11-22T03:19:34.434Z,0.00
2022-11-22T03:20:35.366Z,0.00
2022-11-22T03:21:34.362Z,0.00
2022-11-22T03:22:34.382Z,0.00
2022-11-22T03:23:34.280Z,0.00
2022-11-22T03:24:34.243Z,0.00
2022-11-22T03:25:34.202Z,0.00
2022-11-22T03:26:34.159Z,0.00
2022-11-22T03:27:34.160Z,0.00
2022-11-22T03:28:34.145Z,0.00
2022-11-22T03:29:34.044Z,0.00
2022-11-22T03:30:34.007Z,0.00
2022-11-22T03:31:33.973Z,0.00
2022-11-22T03:32:33.934Z,0.00
2022-11-22T03:33:33.949Z,0.00
2022-11-22T03:34:33.849Z,0.00
2022-11-22T03:35:33.801Z,0.00
2022-11-22T03:36:33.784Z,0.00
2022-11-22T03:37:33.721Z,0.00
2022-11-22T03:38:33.695Z,0.00
2022-11-22T03:39:33.701Z,0.00
2022-11-22T03:40:33.614Z,0.00
2022-11-22T03:41:33.570Z,0.00
2022-11-22T03:42:33.532Z,0.00
2022-11-22T03:43:33.490Z,0.00
2022-11-22T03:44:33.456Z,0.00
2022-11-22T03:45:33.464Z,0.00
2022-11-22T03:46:33.376Z,0.00
2022-11-22T03:47:33.338Z,0.00
2022-11-22T03:48:33.297Z,0.00
2022-11-22T03:49:33.444Z,0.00
2022-11-22T03:50:33.218Z,0.00
2022-11-22T03:51:33.282Z,0.00
2022-11-22T03:52:33.153Z,0.00
2022-11-22T03:53:33.096Z,0.00
2022-11-22T03:54:33.087Z,0.00
2022-11-22T03:55:33.018Z,0.00
2022-11-22T03:56:33.043Z,0.00
2022-11-22T03:57:32.935Z,0.00
2022-11-22T03:58:32.904Z,0.00
2022-11-22T03:59:32.862Z,0.00
2022-11-22T04:00:32.827Z,0.00
2022-11-22T04:01:32.824Z,0.00
2022-11-22T04:02:32.796Z,0.00
2022-11-22T04:03:32.704Z,0.00
2022-11-22T04:04:32.667Z,0.00
2022-11-22T04:05:32.640Z,0.00
2022-11-22T04:06:32.587Z,0.00
2022-11-22T04:07:32.599Z,0.00
2022-11-22T04:08:32.616Z,0.00
2022-11-22T04:09:32.726Z,0.00
2022-11-22T04:10:32.429Z,0.00
2022-11-22T04:11:32.390Z,0.00
2022-11-22T04:12:32.350Z,0.00
2022-11-22T04:13:32.303Z,0.00
2022-11-22T04:14:32.334Z,0.00
2022-11-22T04:15:32.231Z,0.00
2022-11-22T04:16:32.191Z,0.00
2022-11-22T04:17:32.148Z,0.00
2022-11-22T04:18:32.110Z,0.00
2022-11-22T04:19:32.297Z,0.00
2022-11-22T04:20:32.034Z,0.00
2022-11-22T04:21:31.998Z,0.00
2022-11-22T04:22:31.946Z,0.00
2022-11-22T04:23:34.255Z,0.00
2022-11-22T04:24:31.879Z,0.00
2022-11-22T04:25:31.894Z,0.00
2022-11-22T04:26:31.911Z,0.00
2022-11-22T04:27:31.821Z,0.00
2022-11-22T04:29:01.520Z,0.00
2022-11-22T04:29:32.109Z,0.00
2022-11-22T04:30:31.638Z,0.00
2022-11-22T04:31:31.594Z,0.00
2022-11-22T04:32:31.615Z,0.00
2022-11-22T04:33:31.517Z,0.00
2022-11-22T04:34:31.479Z,0.00
2022-11-22T04:35:32.374Z,0.00
2022-11-22T04:36:31.405Z,0.00
2022-11-22T04:37:31.408Z,0.00
2022-11-22T04:38:31.325Z,0.00
2022-11-22T04:39:31.691Z,0.00
2022-11-22T04:40:31.248Z,0.00
2022-11-22T04:41:31.209Z,0.00
2022-11-22T04:42:31.182Z,0.00
2022-11-22T04:43:31.174Z,0.00
2022-11-22T04:44:31.979Z,0.00
2022-11-22T04:45:31.043Z,0.00
2022-11-22T04:46:31.009Z,0.00
2022-11-22T04:47:30.969Z,0.00
2022-11-22T04:48:30.968Z,0.00
2022-11-22T04:49:39.520Z,0.00
2022-11-22T04:50:30.850Z,0.00
2022-11-22T04:51:30.816Z,0.00
2022-11-22T04:52:30.783Z,0.00
2022-11-22T04:53:30.730Z,0.00
2022-11-22T04:54:30.749Z,0.00
2022-11-22T04:55:30.651Z,0.00
2022-11-22T04:56:30.619Z,0.00
2022-11-22T04:57:30.688Z,0.00
2022-11-22T04:58:32.404Z,0.00
2022-11-22T04:59:30.867Z,0.00
2022-11-22T05:00:30.456Z,0.00
2022-11-22T05:01:30.448Z,0.00
2022-11-22T05:02:30.910Z,0.00
2022-11-22T05:03:30.344Z,0.00
2022-11-22T05:04:30.312Z,0.00
2022-11-22T05:05:30.338Z,0.00
2022-11-22T05:06:30.216Z,0.00
2022-11-22T05:07:30.268Z,0.00
2022-11-22T05:08:30.139Z,0.00
2022-11-22T05:09:30.507Z,0.00
2022-11-22T05:10:30.068Z,0.00
2022-11-22T05:11:30.080Z,0.00
2022-11-22T05:12:30.032Z,0.00
2022-11-22T05:13:29.952Z,0.00
2022-11-22T05:14:29.908Z,0.00
2022-11-22T05:15:29.898Z,0.00
2022-11-22T05:16:29.836Z,0.00
2022-11-22T05:17:29.914Z,0.00
2022-11-22T05:18:29.749Z,0.00
2022-11-22T05:19:29.975Z,0.00
2022-11-22T05:20:29.687Z,0.00
2022-11-22T05:21:29.642Z,0.00
2022-11-22T05:22:29.606Z,0.00
2022-11-22T05:23:29.692Z,0.00
2022-11-22T05:24:29.520Z,0.00
2022-11-22T05:25:29.486Z,0.00
2022-11-22T05:26:29.453Z,0.00
2022-11-22T05:27:29.405Z,0.00
2022-11-22T05:28:29.387Z,0.00
2022-11-22T05:29:29.756Z,0.00
2022-11-22T05:30:29.279Z,0.00
2022-11-22T05:31:29.246Z,0.00
2022-11-22T05:32:29.291Z,0.00
2022-11-22T05:33:29.171Z,0.00
2022-11-22T05:34:29.132Z,0.00
2022-11-22T05:35:29.142Z,0.00
2022-11-22T05:36:29.051Z,0.00
2022-11-22T05:37:29.023Z,0.00
2022-11-22T05:38:28.974Z,0.00
2022-11-22T05:39:29.386Z,0.00
2022-11-22T05:40:28.904Z,0.00
2022-11-22T05:41:28.938Z,0.00
2022-11-22T05:42:28.827Z,0.00
2022-11-22T05:43:28.777Z,0.00
2022-11-22T05:44:28.731Z,0.00
2022-11-22T05:45:28.727Z,0.00
2022-11-22T05:46:28.675Z,0.00
2022-11-22T05:47:28.670Z,0.00
2022-11-22T05:48:28.581Z,0.00
2022-11-22T05:49:28.941Z,0.00
2022-11-22T05:50:28.493Z,0.00
2022-11-22T05:51:34.108Z,0.00
2022-11-22T05:52:28.429Z,0.00
2022-11-22T05:53:28.434Z,0.00
2022-11-22T05:54:28.344Z,0.00
2022-11-22T05:55:28.313Z,0.00
2022-11-22T05:56:28.272Z,0.00
2022-11-22T05:57:28.236Z,0.00
2022-11-22T05:58:28.187Z,0.00
2022-11-22T05:59:28.445Z,0.00
2022-11-22T06:00:28.111Z,0.00
2022-11-22T06:01:28.078Z,0.00
2022-11-22T06:02:28.057Z,0.00
2022-11-22T06:03:28.001Z,0.00
2022-11-22T06:04:27.952Z,0.00
2022-11-22T06:05:27.976Z,0.00
2022-11-22T06:06:27.874Z,0.00
2022-11-22T06:07:27.871Z,0.00
2022-11-22T06:08:27.810Z,0.00
2022-11-22T06:09:27.989Z,0.00
2022-11-22T06:10:27.719Z,0.00
2022-11-22T06:11:27.744Z,0.00
2022-11-22T06:12:27.637Z,0.00
2022-11-22T06:13:27.608Z,0.00
2022-11-22T06:14:27.563Z,0.00
2022-11-22T06:15:27.529Z,0.00
2022-11-22T06:16:27.494Z,0.00
2022-11-22T06:17:27.501Z,0.00
2022-11-22T06:18:27.406Z,0.00
2022-11-22T06:19:27.498Z,0.00
2022-11-22T06:20:27.332Z,0.00
2022-11-22T06:21:27.293Z,0.00
2022-11-22T06:22:27.253Z,0.00
2022-11-22T06:23:27.276Z,0.00
2022-11-22T06:24:27.170Z,0.00
2022-11-22T06:25:28.034Z,0.00
2022-11-22T06:26:27.116Z,0.00
2022-11-22T06:27:27.073Z,0.00
2022-11-22T06:28:27.015Z,0.00
2022-11-22T06:29:27.230Z,0.00
2022-11-22T06:30:26.946Z,0.00
2022-11-22T06:31:26.906Z,0.00
2022-11-22T06:32:26.873Z,0.00
2022-11-22T06:33:26.823Z,0.00
2022-11-22T06:34:26.781Z,0.00
2022-11-22T06:35:26.818Z,0.00
2022-11-22T06:36:26.706Z,0.00
2022-11-22T06:37:26.670Z,0.00
2022-11-22T06:38:26.628Z,0.00
2022-11-22T06:39:26.594Z,0.00
2022-11-22T06:40:26.556Z,0.00
2022-11-22T06:41:26.573Z,0.00
2022-11-22T06:42:26.524Z,5.63
2022-11-22T06:43:26.442Z,0.00
2022-11-22T06:44:26.396Z,5.63
2022-11-22T06:45:26.361Z,5.63
2022-11-22T06:46:26.317Z,5.63
2022-11-22T06:47:26.347Z,5.63
2022-11-22T06:48:26.238Z,5.63
2022-11-22T06:49:26.224Z,5.63
2022-11-22T06:50:26.170Z,5.63
2022-11-22T06:51:26.193Z,5.63
2022-11-22T06:52:26.098Z,5.63
2022-11-22T06:53:45.808Z,5.63
2022-11-22T06:54:26.010Z,5.63
2022-11-22T06:55:49.753Z,5.63
2022-11-22T06:56:25.985Z,5.63
2022-11-22T06:57:25.890Z,5.63
2022-11-22T06:58:25.850Z,5.63
2022-11-22T06:59:25.815Z,5.63
2022-11-22T07:00:25.770Z,11.25
2022-11-22T07:01:25.885Z,11.25
2022-11-22T07:02:25.698Z,11.25
2022-11-22T07:03:25.666Z,11.25
2022-11-22T07:04:25.624Z,11.25
2022-11-22T07:05:26.443Z,11.25
2022-11-22T07:06:25.543Z,11.25
2022-11-22T07:07:25.645Z,16.88
2022-11-22T07:08:25.465Z,16.88
2022-11-22T07:09:25.431Z,16.88
2022-11-22T07:10:25.408Z,22.50
2022-11-22T07:11:25.350Z,22.50
2022-11-22T07:12:25.364Z,22.50
2022-11-22T07:13:25.268Z,22.50
2022-11-22T07:14:25.231Z,22.50
2022-11-22T07:15:25.195Z,28.13
2022-11-22T07:16:25.177Z,28.13
2022-11-22T07:17:25.163Z,28.13
2022-11-22T07:18:25.069Z,33.75
2022-11-22T07:19:25.037Z,33.75
2022-11-22T07:20:24.992Z,39.38
2022-11-22T07:21:24.966Z,39.38
2022-11-22T07:22:24.976Z,45.00
2022-11-22T07:23:24.883Z,45.00
2022-11-22T07:24:24.836Z,50.63
2022-11-22T07:25:24.806Z,56.25
2022-11-22T07:26:24.760Z,56.25
2022-11-22T07:27:24.814Z,61.88
2022-11-22T07:28:24.677Z,67.50
2022-11-22T07:29:24.663Z,67.50
2022-11-22T07:30:24.604Z,73.13
2022-11-22T07:31:24.578Z,73.13
2022-11-22T07:32:24.525Z,73.13
2022-11-22T07:33:24.550Z,78.75
2022-11-22T07:34:24.445Z,78.75
2022-11-22T07:35:24.414Z,78.75
2022-11-22T07:36:24.367Z,84.38
2022-11-22T07:37:24.332Z,84.38
2022-11-22T07:38:24.285Z,84.38
2022-11-22T07:39:24.346Z,84.38
2022-11-22T07:40:24.209Z,90.00
2022-11-22T07:41:24.183Z,95.63
2022-11-22T07:42:26.362Z,95.63
2022-11-22T07:43:24.109Z,101.25
2022-11-22T07:44:24.114Z,106.88
2022-11-22T07:45:24.023Z,112.50
2022-11-22T07:46:23.978Z,112.50
2022-11-22T07:47:23.949Z,118.13
2022-11-22T07:48:23.902Z,118.13
2022-11-22T07:49:23.929Z,118.13
2022-11-22T07:50:23.826Z,123.75
2022-11-22T07:51:23.788Z,112.50
2022-11-22T07:52:23.757Z,118.13
2022-11-22T07:53:23.706Z,118.13
2022-11-22T07:54:23.749Z,118.13
2022-11-22T07:55:23.633Z,123.75
2022-11-22T07:56:23.611Z,118.13
2022-11-22T07:57:23.555Z,118.13
2022-11-22T07:58:23.530Z,118.13
2022-11-22T07:59:23.485Z,123.75
2022-11-22T08:00:23.501Z,118.13
2022-11-22T08:01:23.454Z,118.13
2022-11-22T08:02:23.370Z,123.75
2022-11-22T08:03:28.603Z,129.38
2022-11-22T08:04:23.285Z,129.38
2022-11-22T08:05:23.250Z,129.38
2022-11-22T08:06:23.265Z,129.38
2022-11-22T08:07:23.346Z,140.63
2022-11-22T08:08:23.143Z,140.63
2022-11-22T08:09:23.088Z,146.25
2022-11-22T08:10:23.055Z,146.25
2022-11-22T08:11:23.011Z,140.63
2022-11-22T08:12:23.045Z,151.88
2022-11-22T08:13:22.938Z,146.25
2022-11-22T08:14:22.919Z,146.25
2022-11-22T08:15:22.859Z,146.25
2022-11-22T08:16:22.828Z,157.50
2022-11-22T08:17:22.782Z,151.88
2022-11-22T08:18:22.805Z,140.63
2022-11-22T08:19:22.709Z,146.25
2022-11-22T08:20:22.673Z,146.25
2022-11-22T08:21:22.628Z,146.25
2022-11-22T08:22:22.653Z,151.88
2022-11-22T08:23:25.428Z,151.88
2022-11-22T08:24:22.636Z,151.88
2022-11-22T08:25:22.488Z,157.50
2022-11-22T08:26:22.445Z,157.50
2022-11-22T08:27:22.403Z,157.50
2022-11-22T08:28:22.372Z,157.50
2022-11-22T08:29:22.319Z,157.50
2022-11-22T08:30:22.403Z,163.13
2022-11-22T08:31:22.250Z,157.50
2022-11-22T08:32:22.211Z,163.13
2022-11-22T08:33:22.245Z,168.75
2022-11-22T08:34:22.138Z,168.75
2022-11-22T08:35:22.095Z,174.38
2022-11-22T08:36:22.091Z,174.38
2022-11-22T08:37:22.032Z,185.63
2022-11-22T08:38:21.987Z,185.63
2022-11-22T08:39:22.083Z,180.00
2022-11-22T08:40:21.909Z,174.38
2022-11-22T08:41:21.899Z,180.00
2022-11-22T08:42:21.846Z,180.00
2022-11-22T08:43:21.789Z,180.00
2022-11-22T08:44:21.822Z,174.38
2022-11-22T08:45:21.711Z,180.00
2022-11-22T08:46:23.431Z,180.00
2022-11-22T08:47:21.635Z,174.38
2022-11-22T08:48:22.599Z,168.75
2022-11-22T08:49:21.622Z,168.75
2022-11-22T08:50:21.544Z,168.75
2022-11-22T08:51:21.485Z,168.75
2022-11-22T08:52:21.450Z,174.38
2022-11-22T08:53:21.427Z,168.75
2022-11-22T08:54:21.375Z,174.38
2022-11-22T08:55:21.462Z,174.38
2022-11-22T08:56:21.300Z,191.25
2022-11-22T08:57:21.273Z,196.88
2022-11-22T08:58:21.223Z,196.88
2022-11-22T08:59:21.257Z,191.25
2022-11-22T09:00:21.152Z,202.50
2022-11-22T09:01:21.239Z,196.88
2022-11-22T09:02:21.079Z,196.88
2022-11-22T09:03:21.033Z,185.63
2022-11-22T09:04:21.012Z,185.63
2022-11-22T09:05:20.952Z,163.13
2022-11-22T09:09:37.779Z,163.13
2022-11-22T09:10:20.770Z,157.50
2022-11-22T09:11:20.799Z,168.75
2022-11-22T09:12:20.696Z,157.50
2022-11-22T09:13:20.710Z,163.13
2022-11-22T09:14:20.629Z,157.50
2022-11-22T09:15:20.590Z,168.75
2022-11-22T09:16:20.608Z,168.75
2022-11-22T09:17:20.522Z,163.13
2022-11-22T09:18:20.476Z,163.13
2022-11-22T09:19:20.506Z,174.38
2022-11-22T09:20:20.402Z,174.38
2022-11-22T09:21:20.352Z,168.75
2022-11-22T09:22:24.036Z,168.75
2022-11-22T09:23:20.301Z,168.75
2022-11-22T09:24:20.245Z,180.00
2022-11-22T09:25:20.256Z,174.38
2022-11-22T09:26:20.225Z,180.00
2022-11-22T09:27:20.200Z,180.00
2022-11-22T09:28:20.117Z,196.88
2022-11-22T09:29:20.063Z,191.25
2022-11-22T09:30:20.074Z,196.88
2022-11-22T09:31:20.042Z,202.50
2022-11-22T09:32:19.949Z,191.25
2022-11-22T09:33:19.903Z,196.88
2022-11-22T09:34:19.870Z,191.25
2022-11-22T09:35:19.821Z,196.88
2022-11-22T09:36:19.800Z,208.13
2022-11-22T09:37:19.812Z,196.88
2022-11-22T09:38:19.713Z,208.13
2022-11-22T09:39:19.676Z,196.88
2022-11-22T09:40:19.686Z,196.88
2022-11-22T09:41:19.601Z,185.63
2022-11-22T09:42:19.562Z,196.88
2022-11-22T09:43:19.678Z,196.88
2022-11-22T09:44:19.494Z,191.25
2022-11-22T09:45:19.447Z,196.88
2022-11-22T09:46:19.415Z,191.25
2022-11-22T09:47:19.386Z,219.38
2022-11-22T09:48:19.345Z,213.75
2022-11-22T09:49:19.352Z,219.38
2022-11-22T09:50:19.359Z,213.75
2022-11-22T09:51:19.228Z,241.88
2022-11-22T09:52:19.191Z,236.25
2022-11-22T09:53:19.160Z,230.63
2022-11-22T09:54:19.119Z,225.00
2022-11-22T09:55:23.903Z,225.00
2022-11-22T09:56:19.073Z,202.50
2022-11-22T09:57:18.985Z,191.25
2022-11-22T09:58:18.966Z,191.25
2022-11-22T09:59:18.985Z,185.63
2022-11-22T10:00:18.990Z,168.75
2022-11-22T10:01:18.985Z,163.13
2022-11-22T10:02:19.451Z,163.13
2022-11-22T10:03:18.797Z,157.50
2022-11-22T10:04:18.751Z,151.88
2022-11-22T10:05:18.720Z,151.88
2022-11-22T10:06:18.750Z,146.25
2022-11-22T10:07:18.688Z,157.50
2022-11-22T10:08:18.635Z,151.88
2022-11-22T10:09:18.550Z,174.38
2022-11-22T10:10:18.539Z,174.38
2022-11-22T10:11:18.477Z,174.38
2022-11-22T10:12:18.508Z,174.38
2022-11-22T10:13:18.410Z,174.38
2022-11-22T10:14:18.365Z,168.75
2022-11-22T10:15:18.395Z,174.38
2022-11-22T10:16:18.285Z,151.88
2022-11-22T10:17:18.247Z,146.25
2022-11-22T10:18:18.273Z,157.50
2022-11-22T10:19:18.171Z,163.13
2022-11-22T10:20:18.170Z,168.75
2022-11-22T10:21:18.098Z,146.25
2022-11-22T10:22:18.065Z,157.50
2022-11-22T10:23:18.022Z,151.88
2022-11-22T10:24:18.045Z,157.50
2022-11-22T10:25:17.950Z,157.50
2022-11-22T10:26:17.926Z,174.38
2022-11-22T10:27:17.877Z,185.63
2022-11-22T10:28:17.853Z,185.63
2022-11-22T10:29:17.808Z,191.25
2022-11-22T10:30:17.871Z,191.25
2022-11-22T10:31:17.796Z,191.25
2022-11-22T10:32:17.704Z,196.88
2022-11-22T10:33:17.680Z,208.13
2022-11-22T10:34:17.627Z,196.88
2022-11-22T10:35:17.583Z,191.25
2022-11-22T10:36:17.624Z,191.25
2022-11-22T10:37:17.500Z,174.38
2022-11-22T10:38:17.472Z,151.88
2022-11-22T10:39:17.427Z,151.88
2022-11-22T10:40:17.513Z,157.50
2022-11-22T10:41:17.353Z,151.88
2022-11-22T10:42:17.393Z,151.88
2022-11-22T10:43:17.273Z,151.88
2022-11-22T10:44:17.257Z,146.25
2022-11-22T10:45:17.206Z,151.88
2022-11-22T10:46:17.180Z,157.50
2022-11-22T10:47:17.199Z,146.25
2022-11-22T10:48:17.173Z,157.50
2022-11-22T10:49:17.077Z,157.50
2022-11-22T10:50:17.047Z,157.50
2022-11-22T10:51:16.995Z,151.88
2022-11-22T10:52:16.950Z,163.13
2022-11-22T10:53:16.922Z,151.88
2022-11-22T10:54:16.945Z,157.50
2022-11-22T10:55:16.858Z,151.88
2022-11-22T10:56:16.821Z,157.50
2022-11-22T10:57:16.775Z,168.75
2022-11-22T10:58:16.731Z,174.38
2022-11-22T10:59:16.705Z,168.75
2022-11-22T11:00:16.762Z,168.75
2022-11-22T11:01:16.670Z,168.75
2022-11-22T11:02:16.605Z,174.38
2022-11-22T11:03:16.851Z,174.38
2022-11-22T11:04:16.511Z,163.13
2022-11-22T11:05:16.475Z,163.13
2022-11-22T11:06:33.346Z,180.00
2022-11-22T11:07:16.494Z,168.75
2022-11-22T11:08:42.080Z,174.38
2022-11-22T11:10:23.898Z,180.00
2022-11-22T11:11:16.264Z,180.00
2022-11-22T11:12:16.273Z,180.00
2022-11-22T11:13:16.179Z,180.00
2022-11-22T11:14:16.133Z,196.88
2022-11-22T11:15:16.098Z,185.63
2022-11-22T11:16:16.058Z,185.63
2022-11-22T11:17:16.030Z,180.00
2022-11-22T11:18:16.039Z,180.00
2022-11-22T11:19:16.026Z,180.00
2022-11-22T11:20:15.913Z,174.38
2022-11-22T11:21:15.879Z,174.38
2022-11-22T11:22:15.837Z,185.63
2022-11-22T11:23:16.498Z,174.38
2022-11-22T11:24:15.807Z,157.50
2022-11-22T11:25:15.735Z,163.13
2022-11-22T11:26:15.690Z,146.25
2022-11-22T11:27:15.657Z,163.13
2022-11-22T11:28:15.613Z,151.88
2022-11-22T11:29:15.589Z,146.25
2022-11-22T11:30:15.662Z,135.00
2022-11-22T11:31:15.522Z,140.63
2022-11-22T11:32:15.474Z,151.88
2022-11-22T11:33:15.444Z,157.50
2022-11-22T11:34:15.402Z,151.88
2022-11-22T11:35:15.428Z,151.88
2022-11-22T11:36:15.371Z,151.88
2022-11-22T11:37:15.290Z,140.63
2022-11-22T11:38:15.250Z,146.25
2022-11-22T11:39:15.219Z,146.25
2022-11-22T11:40:15.176Z,146.25
2022-11-22T11:41:15.140Z,151.88
2022-11-22T11:42:15.155Z,135.00
2022-11-22T11:43:15.098Z,140.63
2022-11-22T11:44:15.025Z,140.63
2022-11-22T11:45:15.000Z,140.63
2022-11-22T11:46:14.952Z,151.88
2022-11-22T11:47:14.928Z,129.38
2022-11-22T11:48:15.138Z,129.38
2022-11-22T11:49:14.848Z,135.00
2022-11-22T11:50:18.206Z,135.00
2022-11-22T11:51:14.795Z,129.38
2022-11-22T11:52:14.732Z,129.38
2022-11-22T11:53:14.713Z,123.75
2022-11-22T11:54:14.725Z,118.13
2022-11-22T11:55:14.635Z,118.13
2022-11-22T11:56:14.584Z,129.38
2022-11-22T11:57:14.557Z,118.13
2022-11-22T11:59:14.485Z,123.75
2022-11-22T12:00:14.498Z,123.75
2022-11-22T12:01:14.409Z,123.75
2022-11-22T12:02:14.456Z,118.13
2022-11-22T12:02:15.015Z,118.13
2022-11-22T12:03:14.347Z,112.50
2022-11-22T12:04:14.301Z,118.13
2022-11-22T12:05:14.260Z,129.38
2022-11-22T12:06:14.274Z,112.50
2022-11-22T12:07:14.284Z,123.75
2022-11-22T12:08:14.146Z,118.13
2022-11-22T12:09:14.130Z,118.13
2022-11-22T12:10:14.072Z,112.50
2022-11-22T12:11:14.040Z,118.13
2022-11-22T12:12:14.059Z,140.63
2022-11-22T12:13:13.976Z,123.75
2022-11-22T12:14:21.188Z,123.75
2022-11-22T12:15:14.384Z,129.38
2022-11-22T12:16:13.855Z,140.63
2022-11-22T12:17:13.825Z,146.25
2022-11-22T12:18:13.839Z,135.00
2022-11-22T12:19:13.758Z,135.00
2022-11-22T12:20:13.709Z,129.38
2022-11-22T12:21:13.676Z,135.00
2022-11-22T12:22:24.301Z,135.00
2022-11-22T12:23:13.657Z,140.63
2022-11-22T12:24:42.812Z,140.63
2022-11-22T12:25:31.603Z,140.63
2022-11-22T12:26:13.488Z,129.38
2022-11-22T12:27:13.456Z,129.38
2022-11-22T12:28:13.415Z,123.75
2022-11-22T12:29:13.381Z,135.00
2022-11-22T12:30:13.463Z,129.38
2022-11-22T12:32:13.268Z,123.75
2022-11-22T12:33:13.293Z,129.38
2022-11-22T12:34:13.199Z,123.75
2022-11-22T12:35:13.171Z,129.38
2022-11-22T12:36:13.138Z,135.00
2022-11-22T12:37:13.100Z,129.38
2022-11-22T12:38:13.099Z,129.38
2022-11-22T12:39:13.282Z,140.63
2022-11-22T12:40:12.982Z,129.38
2022-11-22T12:41:12.951Z,123.75
2022-11-22T12:42:12.905Z,135.00
2022-11-22T12:43:12.877Z,135.00
2022-11-22T12:44:12.882Z,129.38
2022-11-22T12:45:12.808Z,129.38
2022-11-22T12:46:12.794Z,140.63
2022-11-22T12:47:12.746Z,140.63
2022-11-22T12:48:12.686Z,123.75
2022-11-22T12:48:22.534Z,129.38
2022-11-22T12:49:12.660Z,129.38
2022-11-22T12:50:12.670Z,129.38
2022-11-22T12:51:12.585Z,129.38
2022-11-22T12:52:12.544Z,135.00
2022-11-22T12:53:12.582Z,135.00
2022-11-22T12:54:12.522Z,140.63
2022-11-22T12:55:12.512Z,123.75
2022-11-22T12:56:12.423Z,129.38
2022-11-22T12:57:12.362Z,129.38
2022-11-22T12:58:12.372Z,123.75
2022-11-22T12:59:12.296Z,123.75
2022-11-22T13:00:12.244Z,123.75